createdAt,value
2017-11-04T00:00:02.568Z,989.44
2017-11-04T00:01:02.566Z,989.46
2017-11-04T00:02:02.504Z,989.47
2017-11-04T00:03:02.480Z,989.48
2017-11-04T00:04:02.512Z,989.44
2017-11-04T00:05:02.438Z,989.46
2017-11-04T00:06:02.438Z,989.45
2017-11-04T00:07:02.419Z,989.47
2017-11-04T00:08:02.387Z,989.44
2017-11-04T00:09:02.353Z,989.41
2017-11-04T00:10:02.320Z,989.40
2017-11-04T00:11:02.303Z,989.42
2017-11-04T00:12:02.277Z,989.41
2017-11-04T00:13:02.250Z,989.41
2017-11-04T00:14:02.233Z,989.39
2017-11-04T00:15:02.245Z,989.37
2017-11-04T00:16:02.196Z,989.40
2017-11-04T00:17:02.158Z,989.39
2017-11-04T00:18:02.135Z,989.36
2017-11-04T00:19:02.106Z,989.39
2017-11-04T00:20:02.120Z,989.38
2017-11-04T00:21:02.155Z,989.42
2017-11-04T00:22:02.047Z,989.37
2017-11-04T00:23:02.074Z,989.36
2017-11-04T00:24:02.004Z,989.40
2017-11-04T00:25:01.976Z,989.34
2017-11-04T00:26:01.950Z,989.33
2017-11-04T00:27:01.935Z,989.34
2017-11-04T00:28:01.900Z,989.33
2017-11-04T00:29:01.892Z,989.34
2017-11-04T00:30:01.857Z,989.34
2017-11-04T00:31:01.841Z,989.35
2017-11-04T00:32:01.802Z,989.31
2017-11-04T00:33:01.792Z,989.30
2017-11-04T00:34:01.761Z,989.32
2017-11-04T00:35:01.758Z,989.31
2017-11-04T00:36:01.720Z,989.31
2017-11-04T00:37:01.693Z,989.31
2017-11-04T00:38:01.671Z,989.33
2017-11-04T00:39:01.643Z,989.34
2017-11-04T00:40:01.629Z,989.30
2017-11-04T00:41:01.621Z,989.35
2017-11-04T00:42:01.576Z,989.33
2017-11-04T00:43:01.556Z,989.31
2017-11-04T00:44:01.529Z,989.33
2017-11-04T00:45:01.500Z,989.29
2017-11-04T00:46:01.482Z,989.27
2017-11-04T00:47:01.477Z,989.26
2017-11-04T00:48:01.435Z,989.25
2017-11-04T00:49:01.433Z,989.22
2017-11-04T00:50:01.391Z,989.24
2017-11-04T00:51:01.373Z,989.21
2017-11-04T00:52:01.416Z,989.23
2017-11-04T00:53:01.374Z,989.20
2017-11-04T00:54:01.293Z,989.18
2017-11-04T00:55:01.278Z,989.17
2017-11-04T00:56:01.246Z,989.17
2017-11-04T00:57:01.220Z,989.18
2017-11-04T00:58:01.203Z,989.16
2017-11-04T00:59:01.187Z,989.19
2017-11-04T01:00:01.159Z,989.16
2017-11-04T01:01:01.137Z,989.13
2017-11-04T01:02:01.111Z,989.15
2017-11-04T01:03:01.094Z,989.13
2017-11-04T01:04:01.064Z,989.13
2017-11-04T01:05:01.035Z,989.11
2017-11-04T01:06:01.012Z,989.14
2017-11-04T01:07:01.000Z,989.10
2017-11-04T01:08:00.963Z,989.07
2017-11-04T01:09:00.947Z,989.06
2017-11-04T01:10:00.923Z,989.03
2017-11-04T01:11:00.900Z,989.02
2017-11-04T01:12:00.873Z,988.96
2017-11-04T01:13:00.887Z,988.95
2017-11-04T01:14:00.828Z,988.96
2017-11-04T01:15:00.807Z,988.96
2017-11-04T01:16:00.790Z,988.98
2017-11-04T01:17:00.761Z,988.95
2017-11-04T01:18:00.735Z,988.96
2017-11-04T01:19:00.712Z,988.94
2017-11-04T01:20:00.698Z,988.97
2017-11-04T01:21:00.708Z,988.99
2017-11-04T01:22:00.645Z,988.96
2017-11-04T01:23:00.614Z,988.95
2017-11-04T01:24:00.594Z,988.96
2017-11-04T01:25:00.571Z,988.91
2017-11-04T01:26:00.562Z,988.88
2017-11-04T01:27:00.529Z,988.89
2017-11-04T01:28:00.506Z,988.89
2017-11-04T01:29:00.480Z,988.93
2017-11-04T01:30:00.463Z,988.93
2017-11-04T01:31:00.432Z,988.95
2017-11-04T01:32:00.411Z,988.99
2017-11-04T01:33:00.400Z,988.95
2017-11-04T01:34:00.381Z,988.91
2017-11-04T01:35:00.349Z,988.95
2017-11-04T01:36:00.321Z,988.91
2017-11-04T01:37:00.298Z,988.87
2017-11-04T01:38:00.277Z,988.85
2017-11-04T01:39:00.240Z,988.82
2017-11-04T01:40:00.273Z,988.76
2017-11-04T01:41:00.245Z,988.75
2017-11-04T01:42:00.226Z,988.70
2017-11-04T01:43:00.152Z,988.72
2017-11-04T01:44:00.137Z,988.74
2017-11-04T01:45:00.116Z,988.68
2017-11-04T01:46:00.087Z,988.68
2017-11-04T01:47:00.063Z,988.67
2017-11-04T01:48:00.045Z,988.66
2017-11-04T01:49:00.070Z,988.62
2017-11-04T01:49:59.998Z,988.68
2017-11-04T01:50:59.977Z,988.70
2017-11-04T01:51:59.987Z,988.65
2017-11-04T01:52:59.947Z,988.70
2017-11-04T01:53:59.904Z,988.70
2017-11-04T01:54:59.876Z,988.65
2017-11-04T01:55:59.862Z,988.65
2017-11-04T01:56:59.846Z,988.65
2017-11-04T01:57:59.859Z,988.64
2017-11-04T01:58:59.808Z,988.59
2017-11-04T01:59:59.778Z,988.62
2017-11-04T02:00:59.772Z,988.64
2017-11-04T02:01:59.745Z,988.61
2017-11-04T02:02:59.702Z,988.60
2017-11-04T02:03:59.680Z,988.64
2017-11-04T02:04:59.668Z,988.59
2017-11-04T02:05:59.635Z,988.59
2017-11-04T02:06:59.618Z,988.58
2017-11-04T02:07:59.596Z,988.55
2017-11-04T02:08:59.581Z,988.52
2017-11-04T02:09:59.538Z,988.50
2017-11-04T02:10:59.507Z,988.51
2017-11-04T02:11:59.489Z,988.51
2017-11-04T02:12:59.464Z,988.47
2017-11-04T02:13:59.444Z,988.48
2017-11-04T02:14:59.430Z,988.46
2017-11-04T02:15:59.390Z,988.42
2017-11-04T02:16:59.403Z,988.43
2017-11-04T02:17:59.366Z,988.41
2017-11-04T02:18:59.327Z,988.40
2017-11-04T02:19:59.306Z,988.38
2017-11-04T02:20:59.283Z,988.39
2017-11-04T02:21:59.267Z,988.40
2017-11-04T02:22:59.245Z,988.35
2017-11-04T02:23:59.221Z,988.39
2017-11-04T02:24:59.198Z,988.38
2017-11-04T02:25:59.170Z,988.34
2017-11-04T02:26:59.148Z,988.32
2017-11-04T02:27:59.128Z,988.34
2017-11-04T02:28:59.106Z,988.34
2017-11-04T02:29:59.075Z,988.39
2017-11-04T02:30:59.077Z,988.35
2017-11-04T02:31:59.048Z,988.31
2017-11-04T02:32:59.012Z,988.32
2017-11-04T02:33:58.982Z,988.27
2017-11-04T02:34:58.974Z,988.30
2017-11-04T02:35:58.956Z,988.29
2017-11-04T02:36:58.921Z,988.28
2017-11-04T02:37:58.890Z,988.27
2017-11-04T02:38:58.883Z,988.29
2017-11-04T02:39:58.852Z,988.27
2017-11-04T02:40:58.849Z,988.25
2017-11-04T02:41:58.802Z,988.21
2017-11-04T02:42:58.780Z,988.19
2017-11-04T02:43:58.756Z,988.20
2017-11-04T02:44:58.745Z,988.21
2017-11-04T02:45:58.735Z,988.19
2017-11-04T02:46:58.691Z,988.17
2017-11-04T02:47:58.669Z,988.14
2017-11-04T02:48:58.646Z,988.11
2017-11-04T02:49:58.618Z,988.13
2017-11-04T02:50:58.599Z,988.16
2017-11-04T02:51:58.574Z,988.18
2017-11-04T02:52:58.580Z,988.18
2017-11-04T02:53:58.516Z,988.14
2017-11-04T02:54:58.517Z,988.14
2017-11-04T02:55:58.487Z,988.11
2017-11-04T02:56:58.464Z,988.13
2017-11-04T02:57:58.433Z,988.13
2017-11-04T02:58:58.413Z,988.13
2017-11-04T02:59:58.385Z,988.11
2017-11-04T03:00:58.368Z,988.13
2017-11-04T03:01:58.344Z,988.09
2017-11-04T03:02:58.329Z,988.18
2017-11-04T03:03:58.295Z,988.14
2017-11-04T03:04:58.281Z,988.17
2017-11-04T03:05:58.310Z,988.16
2017-11-04T03:06:58.233Z,988.21
2017-11-04T03:07:58.208Z,988.15
2017-11-04T03:08:58.178Z,988.15
2017-11-04T03:09:58.163Z,988.15
2017-11-04T03:10:58.133Z,988.13
2017-11-04T03:11:58.127Z,988.12
2017-11-04T03:12:58.098Z,988.11
2017-11-04T03:13:58.073Z,988.09
2017-11-04T03:14:58.052Z,988.09
2017-11-04T03:15:58.027Z,988.08
2017-11-04T03:16:58.009Z,988.05
2017-11-04T03:17:57.976Z,988.02
2017-11-04T03:18:57.970Z,988.01
2017-11-04T03:19:57.939Z,988.01
2017-11-04T03:20:57.907Z,988.00
2017-11-04T03:21:57.886Z,988.00
2017-11-04T03:22:57.863Z,988.04
2017-11-04T03:23:57.852Z,987.99
2017-11-04T03:24:57.820Z,988.03
2017-11-04T03:25:57.800Z,988.05
2017-11-04T03:26:57.774Z,988.01
2017-11-04T03:27:57.748Z,988.05
2017-11-04T03:28:57.735Z,988.04
2017-11-04T03:29:57.711Z,987.99
2017-11-04T03:30:57.690Z,988.00
2017-11-04T03:31:57.662Z,987.99
2017-11-04T03:32:57.663Z,987.97
2017-11-04T03:33:57.608Z,987.95
2017-11-04T03:34:57.596Z,987.97
2017-11-04T03:35:57.580Z,987.94
2017-11-04T03:36:57.551Z,987.97
2017-11-04T03:37:57.537Z,987.96
2017-11-04T03:38:57.505Z,987.95
2017-11-04T03:39:57.470Z,987.97
2017-11-04T03:40:57.475Z,987.92
2017-11-04T03:41:57.426Z,987.96
2017-11-04T03:42:57.413Z,987.95
2017-11-04T03:43:57.398Z,987.90
2017-11-04T03:44:57.370Z,987.89
2017-11-04T03:45:57.339Z,987.90
2017-11-04T03:46:57.322Z,987.91
2017-11-04T03:47:57.284Z,987.93
2017-11-04T03:48:57.269Z,987.93
2017-11-04T03:49:57.248Z,987.92
2017-11-04T03:50:57.242Z,987.91
2017-11-04T03:51:57.219Z,987.89
2017-11-04T03:52:57.185Z,987.90
2017-11-04T03:53:57.173Z,987.91
2017-11-04T03:54:57.150Z,987.89
2017-11-04T03:55:57.151Z,987.88
2017-11-04T03:56:57.120Z,987.83
2017-11-04T03:57:57.077Z,987.88
2017-11-04T03:58:57.047Z,987.81
2017-11-04T03:59:57.020Z,987.78
2017-11-04T04:00:56.994Z,987.77
2017-11-04T04:01:56.978Z,987.75
2017-11-04T04:02:56.952Z,987.73
2017-11-04T04:03:56.931Z,987.70
2017-11-04T04:04:56.907Z,987.69
2017-11-04T04:05:56.888Z,987.69
2017-11-04T04:06:56.859Z,987.70
2017-11-04T04:07:56.857Z,987.67
2017-11-04T04:08:56.810Z,987.73
2017-11-04T04:09:56.788Z,987.73
2017-11-04T04:10:56.771Z,987.66
2017-11-04T04:11:56.740Z,987.69
2017-11-04T04:12:56.718Z,987.68
2017-11-04T04:13:56.694Z,987.64
2017-11-04T04:14:56.673Z,987.66
2017-11-04T04:15:56.686Z,987.67
2017-11-04T04:16:56.665Z,987.67
2017-11-04T04:17:56.620Z,987.68
2017-11-04T04:18:56.591Z,987.64
2017-11-04T04:19:56.580Z,987.62
2017-11-04T04:20:56.532Z,987.60
2017-11-04T04:21:56.513Z,987.59
2017-11-04T04:22:56.486Z,987.53
2017-11-04T04:23:56.467Z,987.56
2017-11-04T04:24:56.488Z,987.56
2017-11-04T04:25:56.428Z,987.55
2017-11-04T04:26:56.399Z,987.52
2017-11-04T04:27:56.377Z,987.50
2017-11-04T04:28:56.349Z,987.45
2017-11-04T04:29:56.340Z,987.45
2017-11-04T04:30:56.307Z,987.43
2017-11-04T04:31:56.283Z,987.42
2017-11-04T04:32:56.275Z,987.43
2017-11-04T04:33:56.257Z,987.45
2017-11-04T04:34:56.229Z,987.40
2017-11-04T04:35:56.187Z,987.39
2017-11-04T04:36:56.167Z,987.39
2017-11-04T04:37:56.140Z,987.33
2017-11-04T04:38:56.125Z,987.36
2017-11-04T04:39:56.102Z,987.36
2017-11-04T04:40:56.086Z,987.36
2017-11-04T04:41:56.054Z,987.37
2017-11-04T04:42:56.045Z,987.39
2017-11-04T04:43:56.017Z,987.38
2017-11-04T04:44:56.010Z,987.39
2017-11-04T04:45:55.960Z,987.37
2017-11-04T04:46:55.940Z,987.37
2017-11-04T04:47:55.964Z,987.36
2017-11-04T04:48:55.896Z,987.35
2017-11-04T04:49:55.871Z,987.40
2017-11-04T04:50:55.847Z,987.46
2017-11-04T04:51:55.858Z,987.47
2017-11-04T04:52:55.807Z,987.48
2017-11-04T04:53:55.775Z,987.44
2017-11-04T04:54:55.759Z,987.42
2017-11-04T04:55:55.764Z,987.40
2017-11-04T04:56:55.714Z,987.37
2017-11-04T04:57:55.739Z,987.39
2017-11-04T04:58:55.658Z,987.39
2017-11-04T04:59:55.638Z,987.44
2017-11-04T05:00:55.637Z,987.43
2017-11-04T05:01:55.592Z,987.43
2017-11-04T05:02:55.574Z,987.46
2017-11-04T05:03:55.565Z,987.39
2017-11-04T05:04:55.520Z,987.40
2017-11-04T05:05:55.528Z,987.44
2017-11-04T05:06:55.475Z,987.42
2017-11-04T05:07:55.459Z,987.41
2017-11-04T05:08:55.429Z,987.42
2017-11-04T05:09:55.426Z,987.35
2017-11-04T05:10:55.404Z,987.37
2017-11-04T05:11:55.367Z,987.37
2017-11-04T05:12:55.336Z,987.33
2017-11-04T05:13:55.316Z,987.40
2017-11-04T05:14:55.297Z,987.36
2017-11-04T05:15:55.266Z,987.35
2017-11-04T05:16:55.249Z,987.34
2017-11-04T05:17:55.218Z,987.37
2017-11-04T05:18:55.203Z,987.35
2017-11-04T05:19:55.199Z,987.31
2017-11-04T05:20:55.171Z,987.29
2017-11-04T05:21:55.127Z,987.29
2017-11-04T05:22:55.115Z,987.30
2017-11-04T05:23:55.088Z,987.22
2017-11-04T05:24:55.065Z,987.26
2017-11-04T05:25:55.041Z,987.25
2017-11-04T05:26:55.023Z,987.23
2017-11-04T05:27:54.999Z,987.21
2017-11-04T05:28:54.969Z,987.24
2017-11-04T05:29:54.947Z,987.31
2017-11-04T05:30:54.924Z,987.29
2017-11-04T05:31:54.908Z,987.31
2017-11-04T05:32:54.877Z,987.33
2017-11-04T05:33:54.848Z,987.33
2017-11-04T05:34:54.833Z,987.32
2017-11-04T05:35:54.821Z,987.31
2017-11-04T05:36:54.797Z,987.30
2017-11-04T05:37:54.769Z,987.29
2017-11-04T05:38:54.739Z,987.23
2017-11-04T05:39:54.722Z,987.26
2017-11-04T05:40:54.696Z,987.25
2017-11-04T05:41:54.675Z,987.21
2017-11-04T05:42:54.711Z,987.27
2017-11-04T05:43:54.635Z,987.25
2017-11-04T05:44:54.597Z,987.21
2017-11-04T05:45:54.588Z,987.21
2017-11-04T05:46:54.554Z,987.18
2017-11-04T05:47:54.541Z,987.18
2017-11-04T05:48:54.511Z,987.14
2017-11-04T05:49:54.504Z,987.15
2017-11-04T05:50:54.474Z,987.19
2017-11-04T05:51:54.441Z,987.18
2017-11-04T05:52:54.430Z,987.19
2017-11-04T05:53:54.402Z,987.19
2017-11-04T05:54:54.382Z,987.19
2017-11-04T05:55:54.341Z,987.19
2017-11-04T05:56:54.326Z,987.21
2017-11-04T05:57:54.308Z,987.23
2017-11-04T05:58:54.276Z,987.22
2017-11-04T05:59:54.259Z,987.17
2017-11-04T06:00:54.234Z,987.21
2017-11-04T06:01:54.214Z,987.25
2017-11-04T06:02:54.198Z,987.26
2017-11-04T06:03:54.176Z,987.28
2017-11-04T06:04:54.146Z,987.29
2017-11-04T06:05:54.123Z,987.22
2017-11-04T06:06:54.109Z,987.23
2017-11-04T06:07:54.082Z,987.24
2017-11-04T06:08:54.051Z,987.24
2017-11-04T06:09:54.025Z,987.23
2017-11-04T06:10:54.017Z,987.25
2017-11-04T06:11:53.988Z,987.26
2017-11-04T06:12:53.959Z,987.28
2017-11-04T06:13:53.972Z,987.26
2017-11-04T06:14:53.916Z,987.24
2017-11-04T06:15:53.887Z,987.22
2017-11-04T06:16:53.881Z,987.21
2017-11-04T06:17:53.852Z,987.22
2017-11-04T06:18:53.830Z,987.26
2017-11-04T06:19:53.796Z,987.23
2017-11-04T06:20:53.798Z,987.27
2017-11-04T06:21:53.754Z,987.28
2017-11-04T06:22:53.738Z,987.28
2017-11-04T06:23:53.713Z,987.24
2017-11-04T06:24:53.704Z,987.27
2017-11-04T06:25:53.708Z,987.28
2017-11-04T06:26:53.662Z,987.23
2017-11-04T06:27:53.623Z,987.23
2017-11-04T06:28:53.637Z,987.19
2017-11-04T06:29:53.572Z,987.24
2017-11-04T06:30:53.550Z,987.23
2017-11-04T06:31:53.531Z,987.23
2017-11-04T06:32:53.489Z,987.27
2017-11-04T06:33:53.501Z,987.30
2017-11-04T06:34:53.460Z,987.26
2017-11-04T06:35:53.439Z,987.29
2017-11-04T06:36:53.419Z,987.26
2017-11-04T06:37:53.398Z,987.30
2017-11-04T06:38:53.367Z,987.25
2017-11-04T06:39:53.348Z,987.21
2017-11-04T06:40:53.332Z,987.24
2017-11-04T06:41:53.319Z,987.28
2017-11-04T06:42:53.301Z,987.30
2017-11-04T06:43:53.279Z,987.29
2017-11-04T06:44:53.252Z,987.25
2017-11-04T06:45:53.209Z,987.27
2017-11-04T06:46:53.174Z,987.32
2017-11-04T06:47:53.153Z,987.34
2017-11-04T06:48:53.152Z,987.29
2017-11-04T06:49:53.108Z,987.34
2017-11-04T06:50:53.091Z,987.32
2017-11-04T06:51:53.079Z,987.36
2017-11-04T06:52:53.042Z,987.40
2017-11-04T06:53:53.023Z,987.41
2017-11-04T06:54:53.767Z,987.39
2017-11-04T06:55:52.974Z,987.38
2017-11-04T06:56:53.009Z,987.41
2017-11-04T06:57:52.927Z,987.39
2017-11-04T06:58:52.911Z,987.38
2017-11-04T06:59:52.879Z,987.38
2017-11-04T07:00:52.891Z,987.35
2017-11-04T07:01:52.852Z,987.38
2017-11-04T07:02:52.838Z,987.35
2017-11-04T07:03:52.832Z,987.29
2017-11-04T07:04:52.768Z,987.26
2017-11-04T07:05:52.860Z,987.30
2017-11-04T07:06:52.759Z,987.30
2017-11-04T07:07:52.705Z,987.31
2017-11-04T07:08:52.694Z,987.27
2017-11-04T07:09:52.661Z,987.28
2017-11-04T07:10:52.631Z,987.32
2017-11-04T07:11:52.619Z,987.34
2017-11-04T07:12:52.607Z,987.35
2017-11-04T07:13:52.579Z,987.38
2017-11-04T07:14:52.585Z,987.38
2017-11-04T07:15:52.528Z,987.35
2017-11-04T07:16:52.518Z,987.35
2017-11-04T07:17:52.486Z,987.34
2017-11-04T07:18:52.446Z,987.36
2017-11-04T07:19:52.445Z,987.32
2017-11-04T07:20:52.422Z,987.36
2017-11-04T07:21:52.389Z,987.32
2017-11-04T07:22:52.386Z,987.33
2017-11-04T07:23:52.343Z,987.37
2017-11-04T07:24:52.335Z,987.35
2017-11-04T07:25:52.309Z,987.34
2017-11-04T07:26:52.270Z,987.30
2017-11-04T07:27:52.245Z,987.26
2017-11-04T07:28:52.230Z,987.26
2017-11-04T07:29:52.210Z,987.23
2017-11-04T07:30:52.197Z,987.23
2017-11-04T07:31:52.183Z,987.23
2017-11-04T07:32:52.198Z,987.25
2017-11-04T07:33:52.137Z,987.22
2017-11-04T07:34:52.190Z,987.26
2017-11-04T07:35:52.062Z,987.25
2017-11-04T07:36:52.074Z,987.21
2017-11-04T07:37:52.043Z,987.23
2017-11-04T07:38:52.005Z,987.23
2017-11-04T07:39:51.980Z,987.23
2017-11-04T07:40:51.987Z,987.25
2017-11-04T07:41:51.929Z,987.21
2017-11-04T07:42:51.917Z,987.21
2017-11-04T07:43:51.935Z,987.21
2017-11-04T07:44:51.866Z,987.22
2017-11-04T07:45:51.857Z,987.17
2017-11-04T07:46:51.814Z,987.17
2017-11-04T07:47:51.832Z,987.20
2017-11-04T07:48:51.761Z,987.22
2017-11-04T07:49:51.794Z,987.21
2017-11-04T07:50:51.745Z,987.18
2017-11-04T07:51:51.756Z,987.17
2017-11-04T07:52:51.707Z,987.12
2017-11-04T07:53:51.730Z,987.07
2017-11-04T07:54:51.668Z,987.04
2017-11-04T07:55:51.634Z,987.05
2017-11-04T07:56:51.594Z,987.06
2017-11-04T07:57:51.588Z,987.09
2017-11-04T07:58:51.587Z,987.01
2017-11-04T07:59:51.538Z,987.04
2017-11-04T08:00:51.517Z,987.04
2017-11-04T08:01:51.475Z,987.07
2017-11-04T08:02:51.455Z,987.07
2017-11-04T08:03:51.454Z,986.99
2017-11-04T08:04:51.429Z,986.96
2017-11-04T08:05:51.389Z,986.91
2017-11-04T08:06:51.359Z,986.94
2017-11-04T08:07:51.366Z,986.93
2017-11-04T08:08:51.322Z,986.94
2017-11-04T08:09:51.304Z,986.97
2017-11-04T08:10:51.293Z,986.97
2017-11-04T08:11:51.281Z,986.99
2017-11-04T08:12:51.225Z,986.97
2017-11-04T08:13:51.208Z,986.98
2017-11-04T08:14:51.197Z,986.95
2017-11-04T08:15:51.164Z,986.93
2017-11-04T08:16:51.147Z,986.97
2017-11-04T08:17:51.119Z,986.99
2017-11-04T08:18:51.112Z,986.99
2017-11-04T08:19:51.075Z,986.96
2017-11-04T08:20:51.047Z,986.96
2017-11-04T08:21:51.035Z,986.97
2017-11-04T08:22:51.002Z,986.97
2017-11-04T08:23:51.002Z,986.94
2017-11-04T08:24:50.958Z,986.90
2017-11-04T08:25:50.938Z,986.91
2017-11-04T08:26:50.922Z,986.89
2017-11-04T08:27:50.888Z,986.89
2017-11-04T08:28:50.906Z,986.92
2017-11-04T08:29:50.862Z,986.87
2017-11-04T08:30:50.834Z,986.87
2017-11-04T08:31:50.819Z,986.86
2017-11-04T08:32:50.807Z,986.87
2017-11-04T08:33:50.758Z,986.89
2017-11-04T08:34:50.742Z,986.87
2017-11-04T08:35:50.714Z,986.81
2017-11-04T08:36:50.683Z,986.83
2017-11-04T08:37:50.670Z,986.85
2017-11-04T08:38:50.644Z,986.87
2017-11-04T08:39:50.624Z,986.92
2017-11-04T08:40:50.606Z,986.87
2017-11-04T08:41:50.593Z,986.83
2017-11-04T08:42:50.558Z,986.85
2017-11-04T08:43:50.543Z,986.81
2017-11-04T08:44:50.522Z,986.84
2017-11-04T08:45:50.495Z,986.86
2017-11-04T08:46:50.484Z,986.89
2017-11-04T08:47:50.446Z,986.87
2017-11-04T08:48:50.435Z,986.87
2017-11-04T08:49:50.412Z,986.84
2017-11-04T08:50:50.379Z,986.92
2017-11-04T08:51:50.367Z,986.94
2017-11-04T08:52:50.342Z,986.92
2017-11-04T08:53:50.330Z,986.92
2017-11-04T08:54:50.303Z,986.86
2017-11-04T08:55:50.353Z,986.91
2017-11-04T08:56:50.253Z,986.89
2017-11-04T08:57:50.228Z,986.89
2017-11-04T08:58:50.218Z,986.86
2017-11-04T08:59:50.222Z,986.93
2017-11-04T09:00:50.167Z,986.85
2017-11-04T09:01:50.184Z,986.90
2017-11-04T09:02:50.131Z,986.79
2017-11-04T09:03:50.105Z,986.72
2017-11-04T09:04:50.105Z,986.77
2017-11-04T09:05:50.064Z,986.76
2017-11-04T09:06:50.037Z,986.76
2017-11-04T09:07:50.026Z,986.73
2017-11-04T09:08:50.003Z,986.75
2017-11-04T09:09:50.001Z,986.77
2017-11-04T09:10:49.963Z,986.73
2017-11-04T09:11:49.943Z,986.77
2017-11-04T09:12:49.913Z,986.76
2017-11-04T09:13:49.899Z,986.79
2017-11-04T09:14:49.880Z,986.77
2017-11-04T09:15:49.862Z,986.68
2017-11-04T09:16:49.837Z,986.70
2017-11-04T09:17:49.844Z,986.69
2017-11-04T09:18:49.798Z,986.70
2017-11-04T09:19:49.801Z,986.70
2017-11-04T09:20:49.770Z,986.70
2017-11-04T09:21:49.747Z,986.69
2017-11-04T09:22:49.720Z,986.69
2017-11-04T09:23:49.712Z,986.71
2017-11-04T09:24:49.688Z,986.71
2017-11-04T09:25:49.662Z,986.69
2017-11-04T09:26:49.650Z,986.66
2017-11-04T09:27:49.631Z,986.68
2017-11-04T09:28:49.614Z,986.65
2017-11-04T09:29:49.600Z,986.60
2017-11-04T09:30:49.592Z,986.61
2017-11-04T09:31:49.535Z,986.59
2017-11-04T09:32:49.538Z,986.56
2017-11-04T09:33:49.515Z,986.56
2017-11-04T09:34:49.543Z,986.56
2017-11-04T09:35:49.474Z,986.58
2017-11-04T09:36:49.449Z,986.55
2017-11-04T09:37:49.432Z,986.56
2017-11-04T09:38:49.416Z,986.56
2017-11-04T09:39:49.409Z,986.56
2017-11-04T09:40:49.385Z,986.55
2017-11-04T09:41:49.345Z,986.56
2017-11-04T09:42:49.329Z,986.56
2017-11-04T09:43:49.318Z,986.57
2017-11-04T09:44:49.310Z,986.55
2017-11-04T09:45:49.269Z,986.54
2017-11-04T09:46:49.259Z,986.52
2017-11-04T09:47:49.227Z,986.48
2017-11-04T09:48:49.244Z,986.49
2017-11-04T09:49:49.186Z,986.46
2017-11-04T09:50:49.163Z,986.45
2017-11-04T09:51:49.211Z,986.46
2017-11-04T09:52:49.123Z,986.42
2017-11-04T09:53:49.105Z,986.42
2017-11-04T09:54:49.846Z,986.44
2017-11-04T09:55:49.072Z,986.43
2017-11-04T09:56:49.059Z,986.48
2017-11-04T09:57:49.043Z,986.50
2017-11-04T09:58:49.023Z,986.49
2017-11-04T09:59:48.985Z,986.41
2017-11-04T10:00:49.000Z,986.39
2017-11-04T10:01:48.949Z,986.39
2017-11-04T10:02:48.955Z,986.37
2017-11-04T10:03:48.918Z,986.38
2017-11-04T10:04:48.877Z,986.36
2017-11-04T10:05:48.905Z,986.32
2017-11-04T10:06:48.841Z,986.31
2017-11-04T10:07:51.894Z,986.28
2017-11-04T10:08:48.810Z,986.30
2017-11-04T10:09:48.784Z,986.28
2017-11-04T10:10:48.765Z,986.26
2017-11-04T10:11:48.753Z,986.25
2017-11-04T10:12:48.725Z,986.28
2017-11-04T10:13:48.699Z,986.28
2017-11-04T10:14:48.681Z,986.29
2017-11-04T10:15:48.664Z,986.26
2017-11-04T10:16:48.648Z,986.26
2017-11-04T10:17:48.630Z,986.30
2017-11-04T10:18:48.676Z,986.28
2017-11-04T10:19:48.593Z,986.27
2017-11-04T10:20:48.576Z,986.26
2017-11-04T10:21:48.547Z,986.27
2017-11-04T10:22:48.518Z,986.24
2017-11-04T10:23:48.509Z,986.23
2017-11-04T10:24:48.487Z,986.18
2017-11-04T10:25:48.451Z,986.19
2017-11-04T10:26:48.470Z,986.19
2017-11-04T10:27:48.431Z,986.15
2017-11-04T10:28:48.399Z,986.12
2017-11-04T10:29:48.415Z,986.11
2017-11-04T10:30:48.365Z,986.06
2017-11-04T10:31:48.353Z,986.03
2017-11-04T10:32:48.322Z,986.04
2017-11-04T10:33:48.291Z,986.05
2017-11-04T10:34:48.276Z,986.05
2017-11-04T10:35:48.259Z,986.02
2017-11-04T10:36:48.234Z,985.99
2017-11-04T10:37:48.225Z,985.94
2017-11-04T10:38:48.194Z,985.95
2017-11-04T10:39:48.196Z,985.88
2017-11-04T10:40:48.172Z,985.90
2017-11-04T10:41:48.135Z,985.88
2017-11-04T10:42:48.123Z,985.88
2017-11-04T10:43:48.084Z,985.79
2017-11-04T10:44:48.088Z,985.77
2017-11-04T10:45:48.047Z,985.83
2017-11-04T10:46:48.055Z,985.80
2017-11-04T10:47:48.016Z,985.81
2017-11-04T10:48:48.007Z,985.80
2017-11-04T10:49:48.062Z,985.77
2017-11-04T10:50:47.964Z,985.83
2017-11-04T10:51:47.937Z,985.82
2017-11-04T10:52:47.918Z,985.79
2017-11-04T10:53:47.912Z,985.79
2017-11-04T10:54:47.882Z,985.91
2017-11-04T10:55:47.855Z,985.87
2017-11-04T10:56:47.840Z,985.95
2017-11-04T10:57:47.807Z,985.94
2017-11-04T10:58:47.805Z,985.99
2017-11-04T10:59:47.777Z,985.91
2017-11-04T11:00:47.766Z,985.90
2017-11-04T11:01:47.750Z,985.78
2017-11-04T11:02:47.715Z,985.71
2017-11-04T11:03:47.704Z,985.71
2017-11-04T11:04:47.684Z,985.72
2017-11-04T11:05:47.686Z,985.67
2017-11-04T11:06:47.644Z,985.65
2017-11-04T11:07:47.621Z,985.63
2017-11-04T11:08:47.603Z,985.58
2017-11-04T11:09:47.586Z,985.63
2017-11-04T11:10:47.561Z,985.58
2017-11-04T11:11:47.551Z,985.60
2017-11-04T11:12:47.547Z,985.60
2017-11-04T11:13:47.515Z,985.63
2017-11-04T11:14:47.485Z,985.69
2017-11-04T11:15:47.472Z,985.80
2017-11-04T11:16:47.442Z,985.80
2017-11-04T11:17:47.440Z,985.76
2017-11-04T11:18:47.445Z,985.74
2017-11-04T11:19:47.400Z,985.64
2017-11-04T11:20:47.370Z,985.51
2017-11-04T11:21:47.355Z,985.42
2017-11-04T11:22:47.334Z,985.36
2017-11-04T11:23:47.324Z,985.33
2017-11-04T11:24:47.303Z,985.36
2017-11-04T11:25:47.287Z,985.31
2017-11-04T11:26:47.262Z,985.33
2017-11-04T11:27:47.249Z,985.35
2017-11-04T11:28:47.230Z,985.35
2017-11-04T11:29:47.217Z,985.38
2017-11-04T11:30:47.192Z,985.40
2017-11-04T11:31:47.180Z,985.39
2017-11-04T11:32:47.166Z,985.36
2017-11-04T11:33:47.155Z,985.29
2017-11-04T11:34:47.133Z,985.26
2017-11-04T11:35:47.109Z,985.25
2017-11-04T11:36:47.089Z,985.27
2017-11-04T11:37:47.072Z,985.25
2017-11-04T11:38:47.064Z,985.25
2017-11-04T11:39:47.038Z,985.20
2017-11-04T11:40:47.021Z,985.23
2017-11-04T11:41:46.999Z,985.15
2017-11-04T11:42:46.995Z,985.19
2017-11-04T11:43:46.954Z,985.21
2017-11-04T11:44:46.942Z,985.25
2017-11-04T11:45:46.933Z,985.17
2017-11-04T11:46:46.915Z,985.16
2017-11-04T11:47:46.909Z,985.20
2017-11-04T11:48:46.865Z,985.13
2017-11-04T11:49:46.844Z,985.17
2017-11-04T11:50:46.834Z,985.13
2017-11-04T11:51:46.809Z,985.16
2017-11-04T11:52:46.794Z,985.15
2017-11-04T11:53:46.768Z,985.19
2017-11-04T11:54:46.755Z,985.13
2017-11-04T11:55:46.732Z,985.11
2017-11-04T11:56:46.769Z,985.11
2017-11-04T11:57:46.700Z,985.08
2017-11-04T11:58:46.683Z,985.05
2017-11-04T11:59:46.660Z,985.10
2017-11-04T12:00:46.667Z,985.03
2017-11-04T12:01:46.646Z,985.02
2017-11-04T12:02:46.598Z,984.99
2017-11-04T12:03:46.577Z,985.01
2017-11-04T12:04:46.560Z,984.98
2017-11-04T12:05:46.542Z,984.97
2017-11-04T12:06:46.515Z,984.97
2017-11-04T12:07:46.498Z,984.94
2017-11-04T12:08:46.499Z,984.97
2017-11-04T12:09:46.470Z,984.97
2017-11-04T12:10:46.434Z,984.98
2017-11-04T12:11:46.421Z,985.00
2017-11-04T12:12:46.401Z,985.01
2017-11-04T12:13:46.388Z,985.03
2017-11-04T12:14:46.367Z,985.14
2017-11-04T12:15:46.354Z,985.00
2017-11-04T12:16:46.328Z,985.03
2017-11-04T12:17:46.319Z,985.04
2017-11-04T12:18:46.290Z,985.11
2017-11-04T12:19:46.281Z,985.27
2017-11-04T12:20:46.257Z,985.31
2017-11-04T12:21:46.246Z,985.19
2017-11-04T12:22:46.225Z,985.06
2017-11-04T12:23:46.217Z,984.97
2017-11-04T12:24:46.190Z,984.89
2017-11-04T12:25:46.164Z,984.84
2017-11-04T12:26:46.147Z,984.83
2017-11-04T12:27:46.129Z,984.84